x

Columbia River Bar - 20nm West Of Columbia River Mouth (46029) Wave Buoy

12:50 - Sat 10th Dec 2016 All times are PST. -8 hours from GMT.

  • Sig Wave height 11.8ft
  • Swell Direction
  • Peak Period 11s
  • Average Period 7s
  • Wind
    27mph, 40mph gusts
  • Sea Temp 54°f
  • Luft Temp 51°f
  • Sea Pressure 1010.3mb
  • Columbia River Bar - 20nm West Of Columbia River Mouth
  • Columbia River Bar - 20nm West Of Columbia River Mouth

More Historic Weather Station data

Upgrade to MSW Pro to gain access to the past 30 days of data for over 8000 Wavebouys and Weather Stations around the globe.

Join Pro

Comparision Forecast

View Surf forecast
   
Sa 12/10 12:50 12ft 11s 7s 27 40 mph 1010.3mb 54f 51f
11:50 11.5ft 11s 7s 18 22 mph 1010.6mb 54f 49f
10:50 11.5ft 11s 7s 20 25 mph 1010.7mb 53f 49f
9:50 11ft 9s 7s 27 36 mph 1010.4mb 53f 49f
8:50 11ft 11s 7s 27 34 mph 1009.5mb 53f 50f
7:50 11ft 11s 8s 22 29 mph 1010.1mb 53f 50f
6:50 10ft 12s 8s 20 27 mph 1010.5mb 53f 50f
5:50 11ft 11s 8s 13 18 mph 1011mb 53f 49f
4:50 10ft 12s 8s 18 20 mph 1011mb 53f 49f
3:50 10.5ft 12s 8s 13 18 mph 1011mb 53f 48f
2:50 11ft 12s 8s 18 25 mph 1011mb 53f 49f
1:50 10ft 13s 8s 18 22 mph 1010.5mb 53f 50f
12:50 10.5ft 12s 7s 20 25 mph 1010.3mb 53f 49f
Fr 12/09 11:50 11ft 12s 8s 18 20 mph 1010.4mb 53f 48f
10:50 12ft 12s 8s 16 20 mph 1010.1mb 53f 49f
9:50 13ft 11s 9s 18 22 mph 1009.6mb 53f 50f
8:50 12.5ft 11s 8s 16 20 mph 1009.6mb 53f 49f
7:50 11ft 11s 8s 18 22 mph 1009.7mb 53f 50f
6:50 12ft 11s 8s 18 20 mph 1009.7mb 53f 48f
5:50 12ft 11s 8s 22 29 mph 1009.5mb 53f 51f
4:50 12.5ft 11s 8s 20 25 mph 1010.1mb 53f 50f
3:50 12ft 11s 8s 16 20 mph 1011.3mb 53f 50f
2:50 11ft 11s 8s 18 20 mph 1011.6mb 53f 49f
1:50 12ft 11s 8s 16 20 mph 1011.9mb 53f 51f
12:50 13ft 11s 8s 20 25 mph 1012.7mb 53f 49f
11:50 13ft 11s 8s 13 18 mph 1013.6mb 53f 49f
10:50 11.5ft 10s 8s 16 18 mph 1013.9mb 54f 50f
9:50 10ft 8s 7s 13 18 mph 1013.7mb 54f 50f
8:50 8ft 8s 7s 16 20 mph 1013.5mb 54f 51f
7:50 8ft 8s 6s 18 20 mph 1013.6mb 54f 51f
6:50 7.5ft 8s 6s 22 27 mph 1013.2mb 54f 51f
5:50 8ft 7s 6s 20 25 mph 1012.9mb 54f 52f
4:50 7.5ft 8s 6s 20 27 mph 1013.1mb 54f 50f
3:50 7.5ft 8s 6s 20 25 mph 1012.7mb 54f 52f
2:50 7.5ft 8s 6s 25 31 mph 1012.5mb 54f 53f
1:50 7ft 7s 6s 22 29 mph 1012.1mb 54f 53f
12:50 8ft 6s 6s 20 25 mph 1011.6mb 54f 53f
Do 12/08 11:50 7.5ft 10s 6s 22 27 mph 1011.1mb 54f 52f
10:50 7.5ft 10s 5s 25 31 mph 1010.1mb 54f 53f
9:50 8ft 10s 6s 25 31 mph 1009.1mb 54f 53f
8:50 9ft 10s 6s 27 34 mph 1007.3mb 54f 53f
7:50 7ft 10s 6s 25 29 mph 1006.7mb 54f 43f
6:50 6.5ft 11s 6s 25 29 mph 1006.5mb 54f 41f
5:50 8ft 6s 5s 27 31 mph 1006.6mb 54f 40f
4:50 7.5ft 6s 5s 29 36 mph 1006.4mb 54f 39f
3:50 8ft 6s 5s 31 38 mph 1006.9mb 54f 39f
2:50 7.5ft 6s 5s 34 40 mph 1006.9mb 54f 39f
1:50 7.5ft 6s 5s 34 40 mph 1007.8mb 54f 38f
12:50 7ft 6s 5s 29 36 mph 1008.6mb 54f 39f
11:50 8ft 6s 5s 31 36 mph 1008.9mb 54f 41f
10:50 7ft 6s 5s 29 36 mph 1009.5mb 54f 41f
9:50 7.5ft 6s 5s 29 38 mph 1010.2mb 54f 41f
8:50 8ft 6s 5s 29 38 mph 1010.8mb 54f 41f
7:50 7.5ft 6s 5s 31 38 mph 1011.1mb 54f 40f
6:50 7ft 6s 5s 31 36 mph 1012.3mb 54f 40f
5:50 8ft 6s 5s 31 38 mph 1012.5mb 54f 39f
4:50 8ft 6s 5s 34 40 mph 1013.1mb 54f 39f
3:50 7.5ft 6s 5s 34 40 mph 1014.1mb 54f 39f
2:50 7.5ft 6s 5s 31 40 mph 1015.6mb 54f 39f
1:50 7ft 6s 5s 29 38 mph 1016.9mb 53f 39f
12:50 7ft 5s 5s 31 38 mph 1017.7mb 53f 39f
Mi 12/07 11:50 6.5ft 5s 5s 29 36 mph 1018.3mb 53f 39f
9:50 6.5ft 5s 5s 31 38 mph 1019.1mb 53f 40f
8:50 7ft 5s 5s 34 40 mph 1019.2mb 53f 40f
7:50 6ft 5s 5s 31 38 mph 1020.1mb 53f 40f
6:50 6.5ft 6s 5s 31 38 mph 1020.8mb 53f 41f
5:50 6ft 6s 5s 29 36 mph 1021.7mb 53f 41f
4:50 5.5ft 5s 5s 29 36 mph 1022.3mb 53f 41f
3:50 4.5ft 4s 5s 27 34 mph 1023mb 53f 41f
2:50 4.5ft 9s 5s 25 31 mph 1023.6mb 53f 41f
1:50 4.5ft 9s 5s 25 29 mph 1024.2mb 53f 40f
12:50 5ft 9s 5s 25 29 mph 1025.1mb 52f 40f
11:50 6ft 10s 5s 25 29 mph 1025.9mb 52f 39f
10:50 5.5ft 5s 5s 25 29 mph 1026.5mb 52f 39f
8:50 5.5ft 10s 6s 25 29 mph 1026.9mb 52f 39f
7:50 5.5ft 11s 6s 22 29 mph 1026.8mb 52f 39f
6:50 5.5ft 9s 6s 20 27 mph 1027mb 52f 40f
5:50 6ft 11s 7s 18 25 mph 1027.4mb 52f 39f
4:50 6ft 10s 7s 16 20 mph 1027.6mb 52f 40f
3:50 6ft 10s 7s 16 20 mph 1027.6mb 52f 40f
2:50 6ft 10s 7s 13 18 mph 1027.8mb 52f 41f
1:50 6ft 11s 7s 11 16 mph 1027.8mb 52f 41f
12:50 7ft 11s 8s 13 16 mph 1027.6mb 52f 41f
Di 12/06 11:50 7ft 11s 8s 11 16 mph 1027.2mb 52f 42f
10:50 7.5ft 11s 8s 13 18 mph 1026.8mb 52f 42f